| time (UTC) | temp C | wind direction | speed KPH | gust KPH | rain 1hr cm | rain 24hr cm | rain mn cm | humidity % | barometer mb |
| 20260506033020 | 10 | 258 | 0.0 | 0.0 | 0.00 | 0.20 | 0.15 | 67 | 1011.2 |
| 20260506031519 | 10 | 259 | 0.0 | 0.0 | 0.00 | 0.20 | 0.15 | 66 | 1011.2 |
| 20260506030020 | 10 | 259 | 0.0 | 0.0 | 0.00 | 0.20 | 0.15 | 63 | 1011.1 |
| 20260506024517 | 10 | 259 | 0.0 | 0.0 | 0.00 | 0.51 | 0.15 | 63 | 1010.8 |
| 20260506023017 | 11 | 259 | 0.0 | 0.0 | 0.00 | 0.51 | 0.15 | 61 | 1010.9 |
| 20260506021516 | 11 | 258 | 0.0 | 1.6 | 0.00 | 0.51 | 0.15 | 59 | 1010.9 |
| 20260506020029 | 11 | 268 | 0.0 | 1.6 | 0.00 | 0.51 | 0.15 | 60 | 1010.4 |
| 20260506014515 | 11 | 268 | 0.0 | 1.6 | 0.00 | 0.53 | 0.15 | 57 | 1010.0 |
| 20260506013014 | 11 | 268 | 0.0 | 1.6 | 0.00 | 0.53 | 0.15 | 57 | 1009.9 |
| 20260506011513 | 11 | 264 | 0.0 | 1.6 | 0.00 | 0.53 | 0.15 | 55 | 1010.0 |
| 20260506010017 | 11 | 264 | 0.0 | 1.6 | 0.00 | 0.53 | 0.15 | 54 | 1009.9 |
| 20260506004521 | 11 | 269 | 0.0 | 1.6 | 0.00 | 0.53 | 0.15 | 53 | 1009.6 |
| 20260506003012 | 12 | 272 | 0.0 | 3.2 | 0.00 | 0.53 | 0.15 | 51 | 1009.4 |
| 20260506001512 | 12 | 249 | 0.0 | 3.2 | 0.00 | 0.53 | 0.15 | 50 | 1009.3 |
| 20260506000011 | 12 | 262 | 3.2 | 8.0 | 0.00 | 0.53 | 0.15 | 50 | 1009.3 |
| 20260505234512 | 12 | 274 | 0.0 | 4.8 | 0.00 | 0.53 | 0.15 | 51 | 1009.3 |
| 20260505233009 | 12 | 267 | 0.0 | 1.6 | 0.00 | 0.53 | 0.15 | 50 | 1009.4 |
| 20260505231513 | 12 | 284 | 0.0 | 4.8 | 0.00 | 0.53 | 0.15 | 49 | 1009.5 |
| 20260505230018 | 12 | 272 | 0.0 | 6.4 | 0.00 | 0.53 | 0.15 | 47 | 1009.5 |
| 20260505224509 | 12 | 281 | 0.0 | 3.2 | 0.00 | 0.53 | 0.15 | 48 | 1009.4 |
| 20260505223008 | 12 | 307 | 0.0 | 8.0 | 0.00 | 0.53 | 0.15 | 47 | 1009.5 |
| 20260505221507 | 12 | 257 | 1.6 | 8.0 | 0.00 | 0.53 | 0.15 | 46 | 1009.5 |
| 20260505220006 | 12 | 351 | 1.6 | 9.7 | 0.00 | 0.53 | 0.15 | 46 | 1009.7 |
| 20260505214505 | 12 | 269 | 0.0 | 9.7 | 0.00 | 0.53 | 0.15 | 48 | 1009.6 |
| 20260505213008 | 12 | 357 | 0.0 | 9.7 | 0.00 | 0.53 | 0.15 | 49 | 1009.8 |
| 20260505211505 | 12 | 298 | 0.0 | 8.0 | 0.00 | 0.53 | 0.15 | 57 | 1009.5 |
| 20260505210004 | 12 | 263 | 1.6 | 4.8 | 0.00 | 0.53 | 0.15 | 57 | 1009.8 |
| 20260505204502 | 12 | 270 | 1.6 | 8.0 | 0.00 | 0.53 | 0.15 | 55 | 1010.1 |
| 20260505203005 | 12 | 262 | 1.6 | 8.0 | 0.00 | 0.53 | 0.15 | 56 | 1010.2 |
| 20260505201502 | 11 | 264 | 0.0 | 3.2 | 0.00 | 0.53 | 0.15 | 57 | 1010.4 |
| 20260505200100 | 11 | 255 | 1.6 | 4.8 | 0.00 | 0.53 | 0.15 | 59 | 1010.7 |
| 20260505194600 | 11 | 248 | 0.0 | 8.0 | 0.00 | 0.53 | 0.15 | 57 | 1010.8 |
| 20260505193102 | 11 | 276 | 1.6 | 8.0 | 0.00 | 0.53 | 0.15 | 56 | 1010.9 |
| 20260505191605 | 11 | 263 | 0.0 | 6.4 | 0.00 | 0.53 | 0.15 | 56 | 1010.8 |
| 20260505190111 | 11 | 253 | 0.0 | 4.8 | 0.00 | 0.53 | 0.15 | 54 | 1010.9 |
| 20260505184558 | 11 | 245 | 1.6 | 8.0 | 0.00 | 0.53 | 0.15 | 53 | 1010.9 |
| 20260505183056 | 11 | 248 | 1.6 | 8.0 | 0.00 | 0.53 | 0.15 | 52 | 1010.9 |
| 20260505181640 | 11 | 337 | 1.6 | 8.0 | 0.00 | 0.53 | 0.15 | 53 | 1011.0 |
| 20260505180105 | 11 | 273 | 1.6 | 11.3 | 0.00 | 0.53 | 0.15 | 53 | 1011.0 |
| 20260505174555 | 11 | 267 | 1.6 | 8.0 | 0.00 | 0.53 | 0.15 | 53 | 1011.0 |
| 20260505173052 | 12 | 257 | 0.0 | 9.7 | 0.00 | 0.53 | 0.15 | 53 | 1010.8 |
| 20260505171559 | 12 | 297 | 0.0 | 9.7 | 0.00 | 0.53 | 0.15 | 51 | 1010.7 |
| 20260505170050 | 12 | 288 | 0.0 | 8.0 | 0.00 | 0.53 | 0.15 | 57 | 1010.6 |
| 20260505164550 | 12 | 314 | 0.0 | 4.8 | 0.00 | 0.53 | 0.15 | 59 | 1010.3 |
| 20260505163048 | 12 | 321 | 1.6 | 6.4 | 0.00 | 0.53 | 0.15 | 61 | 1010.2 |
| 20260505161549 | 11 | 300 | 1.6 | 6.4 | 0.00 | 0.53 | 0.15 | 68 | 1010.2 |
| 20260505153046 | 10 | 310 | 0.0 | 6.4 | 0.00 | 0.53 | 0.15 | 73 | 1009.6 |
| 20260505151546 | 10 | 334 | 0.0 | 6.4 | 0.00 | 0.53 | 0.15 | 71 | 1009.6 |
| 20260505124537 | 7 | 304 | 0.0 | 6.4 | 0.15 | 0.53 | 0.15 | 81 | 1009.4 |
| 20260505123046 | 7 | 290 | 1.6 | 9.7 | 0.10 | 0.48 | 0.10 | 78 | 1010.2 |
| 20260505121528 | 8 | 314 | 0.0 | 17.7 | 0.05 | 0.43 | 0.05 | 72 | 1010.2 |
| 20260505120025 | 9 | 276 | 1.6 | 11.3 | 0.03 | 0.41 | 0.03 | 69 | 1010.5 |
| 20260505114522 | 10 | 245 | 3.2 | 14.5 | 0.00 | 0.38 | 0.00 | 66 | 1010.5 |
| 20260505113016 | 10 | 276 | 3.2 | 11.3 | 0.00 | 0.38 | 0.00 | 60 | 1008.8 |
| 20260505111515 | 10 | 297 | 1.6 | 9.7 | 0.00 | 0.38 | 0.00 | 60 | 1008.1 |
| 20260505101505 | 11 | 309 | 0.0 | 4.8 | 0.00 | 0.38 | 0.00 | 56 | 1007.9 |
| 20260505100004 | 11 | 266 | 3.2 | 9.7 | 0.00 | 0.38 | 0.00 | 55 | 1007.7 |
| 20260505094502 | 12 | 308 | 0.0 | 16.1 | 0.00 | 0.38 | 0.00 | 54 | 1007.5 |
| 20260505093059 | 12 | 259 | 0.0 | 4.8 | 0.00 | 0.38 | 0.00 | 56 | 1007.1 |
| 20260505091559 | 12 | 290 | 0.0 | 6.4 | 0.00 | 0.38 | 0.00 | 54 | 1007.1 |
| 20260505090058 | 12 | 337 | 0.0 | 11.3 | 0.00 | 0.38 | 0.00 | 54 | 1006.6 |
| 20260505084602 | 12 | 302 | 4.8 | 16.1 | 0.00 | 0.38 | 0.00 | 53 | 1007.1 |
| 20260505083104 | 13 | 278 | 1.6 | 8.0 | 0.00 | 0.38 | 0.00 | 54 | 1006.6 |
| 20260505081548 | 13 | 245 | 0.0 | 11.3 | 0.00 | 0.38 | 0.00 | 53 | 1006.6 |
| 20260505080045 | 13 | 360 | 3.2 | 11.3 | 0.00 | 0.38 | 0.00 | 53 | 1006.5 |
| 20260505074542 | 13 | 314 | 1.6 | 11.3 | 0.00 | 0.38 | 0.00 | 53 | 1005.5 |
| 20260505073042 | 13 | 294 | 0.0 | 12.9 | 0.00 | 0.38 | 0.00 | 54 | 1005.0 |
| 20260505071535 | 13 | 263 | 0.0 | 4.8 | 0.00 | 0.38 | 0.00 | 54 | 1004.7 |
| 20260505070034 | 13 | 337 | 1.6 | 11.3 | 0.00 | 0.38 | 0.00 | 55 | 1004.6 |
| 20260505064534 | 14 | 303 | 1.6 | 11.3 | 0.00 | 0.38 | 0.00 | 56 | 1004.4 |
| 20260505063029 | 14 | 348 | 1.6 | 6.4 | 0.00 | 0.38 | 0.00 | 64 | 1004.4 |
| 20260505061527 | 14 | 259 | 0.0 | 3.2 | 0.00 | 0.38 | 0.00 | 67 | 1004.2 |
| 20260505060023 | 15 | 311 | 0.0 | 4.8 | 0.00 | 0.38 | 0.00 | 68 | 1003.6 |
| 20260505054540 | 15 | 294 | 0.0 | 3.2 | 0.00 | 0.38 | 0.00 | 69 | 1003.5 |
| 20260505053018 | 15 | 329 | 0.0 | 8.0 | 0.00 | 0.38 | 0.00 | 70 | 1003.4 |
| 20260505051517 | 15 | 309 | 1.6 | 8.0 | 0.00 | 0.38 | 0.00 | 74 | 1002.9 |
| 20260505041511 | 15 | 255 | 0.0 | 0.0 | 0.03 | 0.38 | 0.38 | 87 | 1002.1 |
| 20260505040013 | 15 | 255 | 0.0 | 1.6 | 0.03 | 0.38 | 0.38 | 89 | 1002.1 |
| 20260505034514 | 15 | 255 | 0.0 | 0.0 | 0.08 | 0.38 | 0.38 | 89 | 1001.0 |